Fort Worth, Texas
Current Conditions -  °F | °C
As of 11:53 PM on Tuesday 25 Nov 2014 (Local Time) from KFTW Reporting Station
Clear Clear  
Wind Chill: 41°   Ceiling: Unl
Heat Index: 45°   Visibility: 10mi
Dew Point: 29°   Wind: 7mph
Humidity: 53%   Direction: 190°S
Pressure: 30.09"   Gusts: NA
Location:  32.75°N, 97.33°W
Report Text: KFTW 260553Z 19006KT 10SM CLR 07/M02 A3009 RMK AO2 SLP189 T00721017 10133 20061 401670017 58014
Loading
Personal Weather Stations






























Interactive Weather Map New forecast layout! Learn more

10-Day Weather Forecast

Advertisements
Track Severe Weather on mobile